sensor_id;sensor_type;location;lat;lon;timestamp;temperature;humidity
16038;DHT22;8123;50.906;6.172;2024-01-15T00:01:53;1.40;1.00
16038;DHT22;8123;50.906;6.172;2024-01-15T00:04:18;1.30;1.00
16038;DHT22;8123;50.906;6.172;2024-01-15T00:06:44;1.30;1.00
16038;DHT22;8123;50.906;6.172;2024-01-15T00:09:10;1.30;1.00
16038;DHT22;8123;50.906;6.172;2024-01-15T00:11:35;1.40;1.00
16038;DHT22;8123;50.906;6.172;2024-01-15T00:14:01;1.40;1.00
16038;DHT22;8123;50.906;6.172;2024-01-15T00:16:26;1.40;1.00
16038;DHT22;8123;50.906;6.172;2024-01-15T00:18:52;1.50;1.00
16038;DHT22;8123;50.906;6.172;2024-01-15T00:21:18;1.50;1.00
16038;DHT22;8123;50.906;6.172;2024-01-15T00:23:44;1.60;1.00
16038;DHT22;8123;50.906;6.172;2024-01-15T00:26:10;1.60;1.00
16038;DHT22;8123;50.906;6.172;2024-01-15T00:28:36;1.60;1.00
16038;DHT22;8123;50.906;6.172;2024-01-15T00:31:02;1.50;1.00
16038;DHT22;8123;50.906;6.172;2024-01-15T00:33:28;1.60;1.00
16038;DHT22;8123;50.906;6.172;2024-01-15T00:35:53;1.60;1.00
16038;DHT22;8123;50.906;6.172;2024-01-15T00:38:19;1.60;1.00
16038;DHT22;8123;50.906;6.172;2024-01-15T00:40:45;1.50;1.00
16038;DHT22;8123;50.906;6.172;2024-01-15T00:43:11;1.50;1.00
16038;DHT22;8123;50.906;6.172;2024-01-15T00:45:36;1.60;1.00
16038;DHT22;8123;50.906;6.172;2024-01-15T00:48:03;1.50;1.00
16038;DHT22;8123;50.906;6.172;2024-01-15T00:50:29;1.60;1.00
16038;DHT22;8123;50.906;6.172;2024-01-15T00:52:54;1.60;1.00
16038;DHT22;8123;50.906;6.172;2024-01-15T00:55:20;1.60;1.00
16038;DHT22;8123;50.906;6.172;2024-01-15T00:57:45;1.60;1.00
16038;DHT22;8123;50.906;6.172;2024-01-15T01:00:12;1.60;1.00
16038;DHT22;8123;50.906;6.172;2024-01-15T01:02:37;1.60;1.00
16038;DHT22;8123;50.906;6.172;2024-01-15T01:05:03;1.60;1.00
16038;DHT22;8123;50.906;6.172;2024-01-15T01:07:29;1.50;1.00
16038;DHT22;8123;50.906;6.172;2024-01-15T01:09:55;1.70;1.00
16038;DHT22;8123;50.906;6.172;2024-01-15T01:12:23;1.50;1.00
16038;DHT22;8123;50.906;6.172;2024-01-15T01:14:49;1.50;1.00
16038;DHT22;8123;50.906;6.172;2024-01-15T01:17:14;1.50;1.00
16038;DHT22;8123;50.906;6.172;2024-01-15T01:19:40;1.50;1.00
16038;DHT22;8123;50.906;6.172;2024-01-15T01:22:06;1.50;1.00
16038;DHT22;8123;50.906;6.172;2024-01-15T01:24:31;1.50;1.00
16038;DHT22;8123;50.906;6.172;2024-01-15T01:26:57;1.50;1.00
16038;DHT22;8123;50.906;6.172;2024-01-15T01:29:23;1.50;1.00
16038;DHT22;8123;50.906;6.172;2024-01-15T01:31:48;1.50;1.00
16038;DHT22;8123;50.906;6.172;2024-01-15T01:34:15;1.50;1.00
16038;DHT22;8123;50.906;6.172;2024-01-15T01:36:42;1.60;1.00
16038;DHT22;8123;50.906;6.172;2024-01-15T01:39:08;1.50;1.00
16038;DHT22;8123;50.906;6.172;2024-01-15T01:41:33;1.50;1.00
16038;DHT22;8123;50.906;6.172;2024-01-15T01:43:59;1.50;1.00
16038;DHT22;8123;50.906;6.172;2024-01-15T01:46:27;1.60;1.00
16038;DHT22;8123;50.906;6.172;2024-01-15T01:48:53;1.50;1.00
16038;DHT22;8123;50.906;6.172;2024-01-15T01:51:21;1.50;1.00
16038;DHT22;8123;50.906;6.172;2024-01-15T01:53:49;1.50;1.00
16038;DHT22;8123;50.906;6.172;2024-01-15T01:56:15;1.60;1.00
16038;DHT22;8123;50.906;6.172;2024-01-15T01:58:42;1.60;1.00
16038;DHT22;8123;50.906;6.172;2024-01-15T02:01:08;1.60;1.00
16038;DHT22;8123;50.906;6.172;2024-01-15T02:03:34;1.50;1.00
16038;DHT22;8123;50.906;6.172;2024-01-15T02:06:00;1.50;3.80
16038;DHT22;8123;50.906;6.172;2024-01-15T02:08:26;1.40;14.60
16038;DHT22;8123;50.906;6.172;2024-01-15T02:10:52;1.40;23.00
16038;DHT22;8123;50.906;6.172;2024-01-15T02:13:18;1.40;29.80
16038;DHT22;8123;50.906;6.172;2024-01-15T02:15:44;1.40;37.80
16038;DHT22;8123;50.906;6.172;2024-01-15T02:18:10;1.30;44.80
16038;DHT22;8123;50.906;6.172;2024-01-15T02:20:36;1.40;50.80
16038;DHT22;8123;50.906;6.172;2024-01-15T02:23:09;1.40;55.70
16038;DHT22;8123;50.906;6.172;2024-01-15T02:25:44;1.40;59.70
16038;DHT22;8123;50.906;6.172;2024-01-15T02:28:11;1.40;62.70
16038;DHT22;8123;50.906;6.172;2024-01-15T02:30:38;1.40;63.40
16038;DHT22;8123;50.906;6.172;2024-01-15T02:33:05;1.40;63.00
16038;DHT22;8123;50.906;6.172;2024-01-15T02:35:30;1.40;59.50
16038;DHT22;8123;50.906;6.172;2024-01-15T02:37:56;1.40;59.30
16038;DHT22;8123;50.906;6.172;2024-01-15T02:40:22;1.40;61.70
16038;DHT22;8123;50.906;6.172;2024-01-15T02:42:47;1.50;61.50
16038;DHT22;8123;50.906;6.172;2024-01-15T02:45:13;1.50;60.50
16038;DHT22;8123;50.906;6.172;2024-01-15T02:47:38;1.50;59.10
16038;DHT22;8123;50.906;6.172;2024-01-15T02:50:04;1.50;56.10
16038;DHT22;8123;50.906;6.172;2024-01-15T02:52:30;1.50;53.80
16038;DHT22;8123;50.906;6.172;2024-01-15T02:54:56;1.60;50.40
16038;DHT22;8123;50.906;6.172;2024-01-15T02:57:21;1.60;51.90
16038;DHT22;8123;50.906;6.172;2024-01-15T02:59:47;1.60;51.90
16038;DHT22;8123;50.906;6.172;2024-01-15T03:02:13;1.60;50.50
16038;DHT22;8123;50.906;6.172;2024-01-15T03:04:43;1.70;47.00
16038;DHT22;8123;50.906;6.172;2024-01-15T03:07:08;1.70;44.00
16038;DHT22;8123;50.906;6.172;2024-01-15T03:09:34;1.60;40.60
16038;DHT22;8123;50.906;6.172;2024-01-15T03:12:00;1.70;38.10
16038;DHT22;8123;50.906;6.172;2024-01-15T03:14:25;1.70;38.20
16038;DHT22;8123;50.906;6.172;2024-01-15T03:16:52;1.70;36.40
16038;DHT22;8123;50.906;6.172;2024-01-15T03:19:17;1.70;39.70
16038;DHT22;8123;50.906;6.172;2024-01-15T03:21:43;1.60;38.60
16038;DHT22;8123;50.906;6.172;2024-01-15T03:24:08;2.00;40.40
16038;DHT22;8123;50.906;6.172;2024-01-15T03:26:34;1.70;39.20
16038;DHT22;8123;50.906;6.172;2024-01-15T03:29:00;1.70;41.00
16038;DHT22;8123;50.906;6.172;2024-01-15T03:31:25;1.70;38.80
16038;DHT22;8123;50.906;6.172;2024-01-15T03:33:51;1.70;39.10
16038;DHT22;8123;50.906;6.172;2024-01-15T03:36:16;1.70;35.80
16038;DHT22;8123;50.906;6.172;2024-01-15T03:38:42;1.80;34.70
16038;DHT22;8123;50.906;6.172;2024-01-15T03:41:08;1.80;34.50
16038;DHT22;8123;50.906;6.172;2024-01-15T03:43:33;1.80;35.50
16038;DHT22;8123;50.906;6.172;2024-01-15T03:45:59;1.70;34.80
16038;DHT22;8123;50.906;6.172;2024-01-15T03:48:25;1.70;34.90
16038;DHT22;8123;50.906;6.172;2024-01-15T03:50:50;1.70;35.10
16038;DHT22;8123;50.906;6.172;2024-01-15T03:53:16;1.70;35.70
16038;DHT22;8123;50.906;6.172;2024-01-15T03:55:42;1.80;36.70
16038;DHT22;8123;50.906;6.172;2024-01-15T03:58:08;1.80;37.70
16038;DHT22;8123;50.906;6.172;2024-01-15T04:00:34;1.80;34.20
16038;DHT22;8123;50.906;6.172;2024-01-15T04:02:59;1.80;37.10
16038;DHT22;8123;50.906;6.172;2024-01-15T04:05:25;1.80;38.60
16038;DHT22;8123;50.906;6.172;2024-01-15T04:07:51;1.80;37.70
16038;DHT22;8123;50.906;6.172;2024-01-15T04:10:17;1.80;37.60
16038;DHT22;8123;50.906;6.172;2024-01-15T04:12:42;1.80;39.70
16038;DHT22;8123;50.906;6.172;2024-01-15T04:15:08;1.80;41.10
16038;DHT22;8123;50.906;6.172;2024-01-15T04:17:34;1.90;41.30
16038;DHT22;8123;50.906;6.172;2024-01-15T04:19:59;1.80;41.90
16038;DHT22;8123;50.906;6.172;2024-01-15T04:22:26;1.80;42.50
16038;DHT22;8123;50.906;6.172;2024-01-15T04:24:52;1.90;39.50
16038;DHT22;8123;50.906;6.172;2024-01-15T04:27:17;1.90;38.80
16038;DHT22;8123;50.906;6.172;2024-01-15T04:29:43;1.90;39.10
16038;DHT22;8123;50.906;6.172;2024-01-15T04:32:10;1.90;40.80
16038;DHT22;8123;50.906;6.172;2024-01-15T04:34:35;1.80;41.40
16038;DHT22;8123;50.906;6.172;2024-01-15T04:37:01;1.80;45.20
16038;DHT22;8123;50.906;6.172;2024-01-15T04:39:27;1.90;49.90
16038;DHT22;8123;50.906;6.172;2024-01-15T04:41:52;1.80;52.20
16038;DHT22;8123;50.906;6.172;2024-01-15T04:44:18;1.80;55.00
16038;DHT22;8123;50.906;6.172;2024-01-15T04:46:44;1.80;62.40
16038;DHT22;8123;50.906;6.172;2024-01-15T04:49:11;1.80;60.30
16038;DHT22;8123;50.906;6.172;2024-01-15T04:51:37;1.80;62.00
16038;DHT22;8123;50.906;6.172;2024-01-15T04:54:03;1.80;61.00
16038;DHT22;8123;50.906;6.172;2024-01-15T04:56:29;1.80;59.50
16038;DHT22;8123;50.906;6.172;2024-01-15T04:58:54;1.90;60.20
16038;DHT22;8123;50.906;6.172;2024-01-15T05:01:20;1.80;59.10
16038;DHT22;8123;50.906;6.172;2024-01-15T05:03:45;1.80;58.00
16038;DHT22;8123;50.906;6.172;2024-01-15T05:06:11;1.90;56.70
16038;DHT22;8123;50.906;6.172;2024-01-15T05:08:37;1.90;54.40
16038;DHT22;8123;50.906;6.172;2024-01-15T05:11:02;1.90;50.80
16038;DHT22;8123;50.906;6.172;2024-01-15T05:13:28;1.90;50.10
16038;DHT22;8123;50.906;6.172;2024-01-15T05:15:54;1.90;47.60
16038;DHT22;8123;50.906;6.172;2024-01-15T05:18:19;1.90;43.80
16038;DHT22;8123;50.906;6.172;2024-01-15T05:20:45;1.90;42.00
16038;DHT22;8123;50.906;6.172;2024-01-15T05:23:11;1.90;41.30
16038;DHT22;8123;50.906;6.172;2024-01-15T05:25:36;1.90;36.50
16038;DHT22;8123;50.906;6.172;2024-01-15T05:28:02;1.90;29.90
16038;DHT22;8123;50.906;6.172;2024-01-15T05:30:28;2.00;24.70
16038;DHT22;8123;50.906;6.172;2024-01-15T05:32:54;2.00;19.20
16038;DHT22;8123;50.906;6.172;2024-01-15T05:35:19;2.00;16.70
16038;DHT22;8123;50.906;6.172;2024-01-15T05:37:45;2.00;14.60
16038;DHT22;8123;50.906;6.172;2024-01-15T05:40:12;2.00;14.80
16038;DHT22;8123;50.906;6.172;2024-01-15T05:42:38;2.00;16.50
16038;DHT22;8123;50.906;6.172;2024-01-15T05:45:05;2.00;17.20
16038;DHT22;8123;50.906;6.172;2024-01-15T05:47:30;1.90;19.30
16038;DHT22;8123;50.906;6.172;2024-01-15T05:49:57;1.90;26.00
16038;DHT22;8123;50.906;6.172;2024-01-15T05:52:23;1.90;33.50
16038;DHT22;8123;50.906;6.172;2024-01-15T05:54:49;1.80;40.30
16038;DHT22;8123;50.906;6.172;2024-01-15T05:57:15;1.80;48.10
16038;DHT22;8123;50.906;6.172;2024-01-15T05:59:40;1.80;51.30
16038;DHT22;8123;50.906;6.172;2024-01-15T06:02:06;1.80;53.70
16038;DHT22;8123;50.906;6.172;2024-01-15T06:04:32;1.80;57.60
16038;DHT22;8123;50.906;6.172;2024-01-15T06:06:57;1.70;61.20
16038;DHT22;8123;50.906;6.172;2024-01-15T06:09:23;1.80;71.20
16038;DHT22;8123;50.906;6.172;2024-01-15T06:11:48;1.80;76.50
16038;DHT22;8123;50.906;6.172;2024-01-15T06:14:14;1.70;78.90
16038;DHT22;8123;50.906;6.172;2024-01-15T06:16:40;1.80;84.50
16038;DHT22;8123;50.906;6.172;2024-01-15T06:19:05;1.80;86.10
16038;DHT22;8123;50.906;6.172;2024-01-15T06:21:31;1.80;88.60
16038;DHT22;8123;50.906;6.172;2024-01-15T06:23:56;1.80;88.10
16038;DHT22;8123;50.906;6.172;2024-01-15T06:26:22;1.80;88.10
16038;DHT22;8123;50.906;6.172;2024-01-15T06:28:48;1.80;86.40
16038;DHT22;8123;50.906;6.172;2024-01-15T06:31:14;1.90;79.30
16038;DHT22;8123;50.906;6.172;2024-01-15T06:33:39;1.90;71.60
16038;DHT22;8123;50.906;6.172;2024-01-15T06:36:06;1.90;59.70
16038;DHT22;8123;50.906;6.172;2024-01-15T06:38:31;1.90;52.90
16038;DHT22;8123;50.906;6.172;2024-01-15T06:40:57;1.90;46.20
16038;DHT22;8123;50.906;6.172;2024-01-15T06:43:23;1.90;38.10
16038;DHT22;8123;50.906;6.172;2024-01-15T06:45:48;1.90;34.20
16038;DHT22;8123;50.906;6.172;2024-01-15T06:48:14;2.00;32.30
16038;DHT22;8123;50.906;6.172;2024-01-15T06:50:42;1.90;22.70
16038;DHT22;8123;50.906;6.172;2024-01-15T06:53:07;2.00;21.00
16038;DHT22;8123;50.906;6.172;2024-01-15T06:55:33;1.90;19.70
16038;DHT22;8123;50.906;6.172;2024-01-15T06:57:59;2.00;20.90
16038;DHT22;8123;50.906;6.172;2024-01-15T07:00:25;2.00;20.70
16038;DHT22;8123;50.906;6.172;2024-01-15T07:02:50;2.00;19.80
16038;DHT22;8123;50.906;6.172;2024-01-15T07:05:17;2.00;17.60
16038;DHT22;8123;50.906;6.172;2024-01-15T07:07:43;2.00;16.10
16038;DHT22;8123;50.906;6.172;2024-01-15T07:10:08;2.00;13.40
16038;DHT22;8123;50.906;6.172;2024-01-15T07:12:34;2.10;5.50
16038;DHT22;8123;50.906;6.172;2024-01-15T07:15:00;2.00;1.00
16038;DHT22;8123;50.906;6.172;2024-01-15T07:17:27;2.00;1.00
16038;DHT22;8123;50.906;6.172;2024-01-15T07:19:53;2.00;1.00
16038;DHT22;8123;50.906;6.172;2024-01-15T07:22:18;2.00;1.00
16038;DHT22;8123;50.906;6.172;2024-01-15T07:24:45;1.90;1.00
16038;DHT22;8123;50.906;6.172;2024-01-15T07:27:11;1.90;1.00
16038;DHT22;8123;50.906;6.172;2024-01-15T07:29:37;2.00;1.00
16038;DHT22;8123;50.906;6.172;2024-01-15T07:32:03;2.00;1.00
16038;DHT22;8123;50.906;6.172;2024-01-15T07:34:29;2.00;1.00
16038;DHT22;8123;50.906;6.172;2024-01-15T07:36:55;2.00;1.00
16038;DHT22;8123;50.906;6.172;2024-01-15T07:39:21;2.00;1.00
16038;DHT22;8123;50.906;6.172;2024-01-15T07:41:49;2.00;1.00
16038;DHT22;8123;50.906;6.172;2024-01-15T07:44:14;2.00;1.00
16038;DHT22;8123;50.906;6.172;2024-01-15T07:46:43;2.00;1.00
16038;DHT22;8123;50.906;6.172;2024-01-15T07:49:10;2.20;1.00
16038;DHT22;8123;50.906;6.172;2024-01-15T07:51:36;1.70;1.00
16038;DHT22;8123;50.906;6.172;2024-01-15T07:54:02;2.00;1.00
16038;DHT22;8123;50.906;6.172;2024-01-15T07:56:28;2.00;1.00
16038;DHT22;8123;50.906;6.172;2024-01-15T07:58:53;2.00;1.00
16038;DHT22;8123;50.906;6.172;2024-01-15T08:01:19;2.00;1.00
16038;DHT22;8123;50.906;6.172;2024-01-15T08:03:45;2.10;1.00
16038;DHT22;8123;50.906;6.172;2024-01-15T08:06:10;2.00;1.00
16038;DHT22;8123;50.906;6.172;2024-01-15T08:08:37;2.10;1.00
16038;DHT22;8123;50.906;6.172;2024-01-15T08:11:03;2.00;1.00
16038;DHT22;8123;50.906;6.172;2024-01-15T08:13:28;2.00;1.00
16038;DHT22;8123;50.906;6.172;2024-01-15T08:15:54;1.90;1.00
16038;DHT22;8123;50.906;6.172;2024-01-15T08:18:19;2.00;1.00
16038;DHT22;8123;50.906;6.172;2024-01-15T08:20:47;1.90;1.00
16038;DHT22;8123;50.906;6.172;2024-01-15T08:23:12;2.00;1.00
16038;DHT22;8123;50.906;6.172;2024-01-15T08:25:38;2.10;1.00
16038;DHT22;8123;50.906;6.172;2024-01-15T08:28:04;2.00;1.00
16038;DHT22;8123;50.906;6.172;2024-01-15T08:30:29;1.90;1.00
16038;DHT22;8123;50.906;6.172;2024-01-15T08:32:56;1.90;1.00
16038;DHT22;8123;50.906;6.172;2024-01-15T08:35:22;1.90;1.00
16038;DHT22;8123;50.906;6.172;2024-01-15T08:37:52;1.90;1.00
16038;DHT22;8123;50.906;6.172;2024-01-15T08:40:18;1.90;1.00
16038;DHT22;8123;50.906;6.172;2024-01-15T08:42:44;1.90;1.00
16038;DHT22;8123;50.906;6.172;2024-01-15T08:45:11;2.30;1.00
16038;DHT22;8123;50.906;6.172;2024-01-15T08:47:37;2.30;1.00
16038;DHT22;8123;50.906;6.172;2024-01-15T08:50:04;1.80;7.90
16038;DHT22;8123;50.906;6.172;2024-01-15T08:52:30;1.70;17.20
16038;DHT22;8123;50.906;6.172;2024-01-15T08:54:56;1.70;24.10
16038;DHT22;8123;50.906;6.172;2024-01-15T08:57:22;1.70;29.00
16038;DHT22;8123;50.906;6.172;2024-01-15T08:59:48;1.70;32.50
16038;DHT22;8123;50.906;6.172;2024-01-15T09:02:13;2.00;34.50
16038;DHT22;8123;50.906;6.172;2024-01-15T09:04:40;1.70;39.50
16038;DHT22;8123;50.906;6.172;2024-01-15T09:07:07;1.70;37.50
16038;DHT22;8123;50.906;6.172;2024-01-15T09:09:32;1.80;39.40
16038;DHT22;8123;50.906;6.172;2024-01-15T09:11:59;1.70;38.70
16038;DHT22;8123;50.906;6.172;2024-01-15T09:14:25;1.80;40.50
16038;DHT22;8123;50.906;6.172;2024-01-15T09:16:52;1.80;41.10
16038;DHT22;8123;50.906;6.172;2024-01-15T09:19:18;1.70;45.20
16038;DHT22;8123;50.906;6.172;2024-01-15T09:21:44;1.80;43.80
16038;DHT22;8123;50.906;6.172;2024-01-15T09:24:10;1.80;46.30
16038;DHT22;8123;50.906;6.172;2024-01-15T09:26:35;1.80;44.10
16038;DHT22;8123;50.906;6.172;2024-01-15T09:29:01;1.70;41.10
16038;DHT22;8123;50.906;6.172;2024-01-15T09:31:28;1.70;43.50
16038;DHT22;8123;50.906;6.172;2024-01-15T09:33:54;2.30;48.60
16038;DHT22;8123;50.906;6.172;2024-01-15T09:36:24;1.70;54.40
16038;DHT22;8123;50.906;6.172;2024-01-15T09:38:51;1.60;60.40
16038;DHT22;8123;50.906;6.172;2024-01-15T09:41:16;1.60;71.20
16038;DHT22;8123;50.906;6.172;2024-01-15T09:43:42;1.60;82.00
16038;DHT22;8123;50.906;6.172;2024-01-15T09:46:08;1.60;89.60
16038;DHT22;8123;50.906;6.172;2024-01-15T09:48:35;1.60;93.60
16038;DHT22;8123;50.906;6.172;2024-01-15T09:51:05;1.60;95.90
16038;DHT22;8123;50.906;6.172;2024-01-15T09:53:31;1.60;97.70
16038;DHT22;8123;50.906;6.172;2024-01-15T09:55:58;1.60;99.20
16038;DHT22;8123;50.906;6.172;2024-01-15T09:58:23;1.60;99.90
16038;DHT22;8123;50.906;6.172;2024-01-15T10:00:50;1.60;99.90
16038;DHT22;8123;50.906;6.172;2024-01-15T10:03:17;1.60;99.90
16038;DHT22;8123;50.906;6.172;2024-01-15T10:05:43;1.60;99.90
16038;DHT22;8123;50.906;6.172;2024-01-15T10:08:09;1.50;99.90
16038;DHT22;8123;50.906;6.172;2024-01-15T10:10:36;1.60;99.90
16038;DHT22;8123;50.906;6.172;2024-01-15T10:13:04;1.60;99.90
16038;DHT22;8123;50.906;6.172;2024-01-15T10:15:29;1.60;99.90
16038;DHT22;8123;50.906;6.172;2024-01-15T10:17:55;1.60;99.90
16038;DHT22;8123;50.906;6.172;2024-01-15T10:20:21;1.60;99.90
16038;DHT22;8123;50.906;6.172;2024-01-15T10:22:50;1.60;99.90
16038;DHT22;8123;50.906;6.172;2024-01-15T10:25:16;1.60;99.90
16038;DHT22;8123;50.906;6.172;2024-01-15T10:27:42;1.60;99.90
16038;DHT22;8123;50.906;6.172;2024-01-15T10:30:09;1.60;99.90
16038;DHT22;8123;50.906;6.172;2024-01-15T10:32:34;1.60;99.90
16038;DHT22;8123;50.906;6.172;2024-01-15T10:35:00;1.60;99.90
16038;DHT22;8123;50.906;6.172;2024-01-15T10:37:25;1.60;99.90
16038;DHT22;8123;50.906;6.172;2024-01-15T10:39:52;1.60;99.90
16038;DHT22;8123;50.906;6.172;2024-01-15T10:42:18;1.60;99.90
16038;DHT22;8123;50.906;6.172;2024-01-15T10:44:44;1.70;99.90
16038;DHT22;8123;50.906;6.172;2024-01-15T10:47:12;1.70;99.90
16038;DHT22;8123;50.906;6.172;2024-01-15T10:49:38;1.80;93.10
16038;DHT22;8123;50.906;6.172;2024-01-15T10:52:05;1.80;82.70
16038;DHT22;8123;50.906;6.172;2024-01-15T10:54:32;1.90;61.10
16038;DHT22;8123;50.906;6.172;2024-01-15T10:56:58;1.90;44.60
16038;DHT22;8123;50.906;6.172;2024-01-15T10:59:24;2.00;31.00
16038;DHT22;8123;50.906;6.172;2024-01-15T11:01:51;2.00;23.10
16038;DHT22;8123;50.906;6.172;2024-01-15T11:04:20;2.00;14.60
16038;DHT22;8123;50.906;6.172;2024-01-15T11:06:50;2.00;14.70
16038;DHT22;8123;50.906;6.172;2024-01-15T11:09:16;2.00;10.90
16038;DHT22;8123;50.906;6.172;2024-01-15T11:11:45;2.00;1.10
16038;DHT22;8123;50.906;6.172;2024-01-15T11:17:00;2.10;1.00
16038;DHT22;8123;50.906;6.172;2024-01-15T11:22:10;2.20;1.00
16038;DHT22;8123;50.906;6.172;2024-01-15T11:25:01;2.20;1.00
16038;DHT22;8123;50.906;6.172;2024-01-15T11:27:40;2.30;1.00
16038;DHT22;8123;50.906;6.172;2024-01-15T11:30:13;2.20;1.00
16038;DHT22;8123;50.906;6.172;2024-01-15T11:32:39;2.20;1.00
16038;DHT22;8123;50.906;6.172;2024-01-15T11:35:08;2.40;1.00
16038;DHT22;8123;50.906;6.172;2024-01-15T11:42:54;2.20;1.00
16038;DHT22;8123;50.906;6.172;2024-01-15T11:45:20;2.30;1.00
16038;DHT22;8123;50.906;6.172;2024-01-15T11:48:11;2.30;1.00
16038;DHT22;8123;50.906;6.172;2024-01-15T11:50:44;2.30;1.00
16038;DHT22;8123;50.906;6.172;2024-01-15T11:53:37;2.30;1.00
16038;DHT22;8123;50.906;6.172;2024-01-15T11:56:14;2.40;1.00
16038;DHT22;8123;50.906;6.172;2024-01-15T11:58:40;2.50;1.00
16038;DHT22;8123;50.906;6.172;2024-01-15T12:01:05;2.60;1.00
16038;DHT22;8123;50.906;6.172;2024-01-15T12:03:32;2.70;1.00
16038;DHT22;8123;50.906;6.172;2024-01-15T12:05:58;2.80;1.00
16038;DHT22;8123;50.906;6.172;2024-01-15T12:08:25;2.80;1.00
16038;DHT22;8123;50.906;6.172;2024-01-15T12:10:52;2.70;1.00
16038;DHT22;8123;50.906;6.172;2024-01-15T12:13:19;2.60;1.00
16038;DHT22;8123;50.906;6.172;2024-01-15T12:15:47;2.60;1.00
16038;DHT22;8123;50.906;6.172;2024-01-15T12:18:15;2.60;1.00
16038;DHT22;8123;50.906;6.172;2024-01-15T12:20:42;2.60;1.00
16038;DHT22;8123;50.906;6.172;2024-01-15T12:23:08;2.50;1.00
16038;DHT22;8123;50.906;6.172;2024-01-15T12:25:35;2.40;1.00
16038;DHT22;8123;50.906;6.172;2024-01-15T12:28:01;2.30;1.00
16038;DHT22;8123;50.906;6.172;2024-01-15T12:30:28;2.20;1.00
16038;DHT22;8123;50.906;6.172;2024-01-15T12:32:54;2.00;1.00
16038;DHT22;8123;50.906;6.172;2024-01-15T12:35:20;2.00;1.00
16038;DHT22;8123;50.906;6.172;2024-01-15T12:37:47;2.00;10.20
16038;DHT22;8123;50.906;6.172;2024-01-15T12:40:13;2.00;16.40
16038;DHT22;8123;50.906;6.172;2024-01-15T12:42:40;2.00;19.40
16038;DHT22;8123;50.906;6.172;2024-01-15T12:45:06;2.30;25.90
16038;DHT22;8123;50.906;6.172;2024-01-15T12:47:32;2.00;30.90
16038;DHT22;8123;50.906;6.172;2024-01-15T12:49:58;2.10;35.30
16038;DHT22;8123;50.906;6.172;2024-01-15T12:52:29;2.00;37.60
16038;DHT22;8123;50.906;6.172;2024-01-15T12:54:56;1.90;35.20
16038;DHT22;8123;50.906;6.172;2024-01-15T12:57:22;1.90;46.40
16038;DHT22;8123;50.906;6.172;2024-01-15T12:59:49;1.90;52.90
16038;DHT22;8123;50.906;6.172;2024-01-15T13:02:16;1.90;61.80
16038;DHT22;8123;50.906;6.172;2024-01-15T13:04:42;1.90;62.80
16038;DHT22;8123;50.906;6.172;2024-01-15T13:07:08;2.00;59.90
16038;DHT22;8123;50.906;6.172;2024-01-15T13:09:34;2.00;56.20
16038;DHT22;8123;50.906;6.172;2024-01-15T13:12:01;2.10;47.90
16038;DHT22;8123;50.906;6.172;2024-01-15T13:14:27;2.10;35.40
16038;DHT22;8123;50.906;6.172;2024-01-15T13:16:53;2.10;33.70
16038;DHT22;8123;50.906;6.172;2024-01-15T13:19:19;2.20;29.80
16038;DHT22;8123;50.906;6.172;2024-01-15T13:21:47;2.00;28.30
16038;DHT22;8123;50.906;6.172;2024-01-15T13:24:13;2.00;25.30
16038;DHT22;8123;50.906;6.172;2024-01-15T13:26:39;2.00;19.30
16038;DHT22;8123;50.906;6.172;2024-01-15T13:29:05;2.00;19.00
16038;DHT22;8123;50.906;6.172;2024-01-15T13:31:32;1.90;21.80
16038;DHT22;8123;50.906;6.172;2024-01-15T13:33:58;1.90;27.40
16038;DHT22;8123;50.906;6.172;2024-01-15T13:36:24;1.90;34.30
16038;DHT22;8123;50.906;6.172;2024-01-15T13:38:51;1.80;40.50
16038;DHT22;8123;50.906;6.172;2024-01-15T13:41:17;1.90;48.10
16038;DHT22;8123;50.906;6.172;2024-01-15T13:43:46;1.90;53.80
16038;DHT22;8123;50.906;6.172;2024-01-15T13:46:11;1.90;55.10
16038;DHT22;8123;50.906;6.172;2024-01-15T13:48:37;1.90;53.40
16038;DHT22;8123;50.906;6.172;2024-01-15T13:51:03;1.90;47.00
16038;DHT22;8123;50.906;6.172;2024-01-15T13:53:28;1.90;39.30
16038;DHT22;8123;50.906;6.172;2024-01-15T13:55:55;2.00;36.10
16038;DHT22;8123;50.906;6.172;2024-01-15T13:58:20;2.00;35.00
16038;DHT22;8123;50.906;6.172;2024-01-15T14:00:47;2.00;32.30
16038;DHT22;8123;50.906;6.172;2024-01-15T14:03:12;2.00;31.30
16038;DHT22;8123;50.906;6.172;2024-01-15T14:05:38;2.00;28.80
16038;DHT22;8123;50.906;6.172;2024-01-15T14:08:04;2.00;29.00
16038;DHT22;8123;50.906;6.172;2024-01-15T14:10:30;2.00;21.40
16038;DHT22;8123;50.906;6.172;2024-01-15T14:12:55;2.00;24.50
16038;DHT22;8123;50.906;6.172;2024-01-15T14:15:21;1.90;23.30
16038;DHT22;8123;50.906;6.172;2024-01-15T14:17:47;2.00;25.50
16038;DHT22;8123;50.906;6.172;2024-01-15T14:20:13;2.00;28.70
16038;DHT22;8123;50.906;6.172;2024-01-15T14:22:39;2.00;29.60
16038;DHT22;8123;50.906;6.172;2024-01-15T14:25:04;2.00;28.40
16038;DHT22;8123;50.906;6.172;2024-01-15T14:27:30;2.00;26.00
16038;DHT22;8123;50.906;6.172;2024-01-15T14:29:56;2.00;21.90
16038;DHT22;8123;50.906;6.172;2024-01-15T14:32:21;2.00;15.90
16038;DHT22;8123;50.906;6.172;2024-01-15T14:34:47;2.10;16.30
16038;DHT22;8123;50.906;6.172;2024-01-15T14:37:13;2.00;11.60
16038;DHT22;8123;50.906;6.172;2024-01-15T14:39:39;2.00;9.40
16038;DHT22;8123;50.906;6.172;2024-01-15T14:42:04;2.00;8.90
16038;DHT22;8123;50.906;6.172;2024-01-15T14:44:30;2.00;12.60
16038;DHT22;8123;50.906;6.172;2024-01-15T14:46:56;2.00;17.30
16038;DHT22;8123;50.906;6.172;2024-01-15T14:49:24;2.00;15.80
16038;DHT22;8123;50.906;6.172;2024-01-15T14:51:50;2.00;19.30
16038;DHT22;8123;50.906;6.172;2024-01-15T14:54:15;2.10;16.60
16038;DHT22;8123;50.906;6.172;2024-01-15T14:56:41;2.10;13.60
16038;DHT22;8123;50.906;6.172;2024-01-15T14:59:08;2.60;10.20
16038;DHT22;8123;50.906;6.172;2024-01-15T15:01:34;2.10;7.60
16038;DHT22;8123;50.906;6.172;2024-01-15T15:04:00;2.20;6.70
16038;DHT22;8123;50.906;6.172;2024-01-15T15:06:26;2.20;5.30
16038;DHT22;8123;50.906;6.172;2024-01-15T15:08:53;2.10;1.00
16038;DHT22;8123;50.906;6.172;2024-01-15T15:11:20;2.20;1.00
16038;DHT22;8123;50.906;6.172;2024-01-15T15:13:49;2.20;1.00
16038;DHT22;8123;50.906;6.172;2024-01-15T15:16:15;2.20;1.00
16038;DHT22;8123;50.906;6.172;2024-01-15T15:18:41;2.20;1.00
16038;DHT22;8123;50.906;6.172;2024-01-15T15:21:09;2.20;1.00
16038;DHT22;8123;50.906;6.172;2024-01-15T15:23:35;2.20;1.00
16038;DHT22;8123;50.906;6.172;2024-01-15T15:26:01;2.20;1.00
16038;DHT22;8123;50.906;6.172;2024-01-15T15:28:27;2.10;1.00
16038;DHT22;8123;50.906;6.172;2024-01-15T15:30:52;2.10;1.00
16038;DHT22;8123;50.906;6.172;2024-01-15T15:33:18;2.10;1.00
16038;DHT22;8123;50.906;6.172;2024-01-15T15:35:44;2.10;1.00
16038;DHT22;8123;50.906;6.172;2024-01-15T15:38:10;2.00;1.00
16038;DHT22;8123;50.906;6.172;2024-01-15T15:40:36;2.30;1.00
16038;DHT22;8123;50.906;6.172;2024-01-15T15:43:01;2.00;1.00
16038;DHT22;8123;50.906;6.172;2024-01-15T15:45:27;2.00;1.00
16038;DHT22;8123;50.906;6.172;2024-01-15T15:47:53;2.00;1.00
16038;DHT22;8123;50.906;6.172;2024-01-15T15:50:18;2.00;1.00
16038;DHT22;8123;50.906;6.172;2024-01-15T15:52:45;2.00;1.00
16038;DHT22;8123;50.906;6.172;2024-01-15T15:55:10;2.00;1.00
16038;DHT22;8123;50.906;6.172;2024-01-15T15:57:36;2.00;1.00
16038;DHT22;8123;50.906;6.172;2024-01-15T16:00:03;2.00;1.00
16038;DHT22;8123;50.906;6.172;2024-01-15T16:02:30;2.00;1.00
16038;DHT22;8123;50.906;6.172;2024-01-15T16:04:55;1.90;1.00
16038;DHT22;8123;50.906;6.172;2024-01-15T16:07:21;2.60;1.00
16038;DHT22;8123;50.906;6.172;2024-01-15T16:09:47;2.20;1.00
16038;DHT22;8123;50.906;6.172;2024-01-15T16:12:12;2.00;1.00